Etusivu
METAR-TAF:

METAR-TAF

Lentoasemat :

Meiringen, Sveitsi

Leveyspiiri: 46-44-25N, Pituuspiiri: 8-06-36E, korkeus merenpinnasta: 577 m

Tämänhetkinen sää

Tämä raportti tehtiin 29 minuuttia sitten, kello 10.20 UTC
Tuuli 4 kn idästä, vaihdellen koillisen ja idän/kaakon välillä
Lämpötila 6°C
Kosteus 81%
Ilmanpaine 1008 hPa
Näkyvyys 10 km tai enemmän
Hajanaisia pilviä 4300 ft:n korkeudessa

METAR: LSMM 121020Z AUTO 08004KT 050V110 9999NDV SCT043 06/03 Q1008 RMK

Aika: 11:49 (10:49 UTC)


TAF: puuttuu

Säähavainnot ja -ennusteet yli 4000 lentoasemalta (METAR- ja TAF-raportit).

Käytössä olevat sääasemat on merkitty karttaan keltaisilla ja punaisilla pisteillä.

Aseta hiiri pisteen päälle nähdäksesi sääaseman nimen.

Klikkaa sitten nähdäksesi säähavainnot ja -ennusteet.

Kartan vaihtaminen: klikkaa mustalla rastilla varustettuja vihreitä pisteitä, niin voit zoomata sisään; viivalla varustettua vihreää pistettä, niin voit zoomata ulos tai vihreitä nuolia, niin pääset viereisille kartoille.


METAR-TAF: